Time;durP1;ratioP1;P1;durP2;ratioP2;P2;SDS_P1;SDS_P2;PMS_P1;PMS_P2;Temp;Humidity;BMP_temperature;BMP_pressure;BME280_temperature;BME280_humidity;BME280_pressure;Samples;Min_cycle;Max_cycle;Signal;HPM_P1;HPM_P2
2022/03/30 00:01:00;;;;;;;33.28;19.13;;;;;;;;;;5015544;28;20141;-60
2022/03/30 00:03:26;;;;;;;35.45;18.30;;;;;;;;;;5002158;28;20107;-60
2022/03/30 00:05:53;;;;;;;31.65;17.73;;;;;;;;;;5018165;28;20540;-60
2022/03/30 00:08:19;;;;;;;33.92;17.90;;;;;;;;;;5015493;28;20037;-60
2022/03/30 00:10:45;;;;;;;33.55;18.13;;;;;;;;;;5000583;28;20117;-59
2022/03/30 00:13:11;;;;;;;30.05;16.83;;;;;;;;;;5018727;28;20477;-60
2022/03/30 00:15:37;;;;;;;35.20;18.85;;;;;;;;;;5017593;28;20029;-60
2022/03/30 00:18:03;;;;;;;32.40;17.80;;;;;;;;;;5003545;28;20488;-60
2022/03/30 00:20:29;;;;;;;35.78;18.48;;;;;;;;;;5019865;28;20052;-60
2022/03/30 00:22:55;;;;;;;37.20;18.52;;;;;;;;;;5021601;28;20057;-60
2022/03/30 00:25:21;;;;;;;31.98;17.70;;;;;;;;;;5019947;28;20128;-60
2022/03/30 00:27:47;;;;;;;33.60;17.77;;;;;;;;;;5021686;28;20029;-60
2022/03/30 00:30:18;;;;;;;34.00;18.20;;;;;;;;;;5019618;28;20052;-60
2022/03/30 00:32:44;;;;;;;35.50;17.98;;;;;;;;;;5019697;28;20030;-59
2022/03/30 00:35:10;;;;;;;36.83;18.45;;;;;;;;;;5021047;28;20022;-60
2022/03/30 00:37:37;;;;;;;31.20;17.60;;;;;;;;;;5017716;28;20474;-59
2022/03/30 00:40:07;;;;;;;31.58;17.15;;;;;;;;;;5004843;28;20363;-59
2022/03/30 00:42:33;;;;;;;36.28;18.08;;;;;;;;;;5018983;28;20883;-60
2022/03/30 00:45:08;;;;;;;33.13;18.60;;;;;;;;;;5017674;28;20021;-59
2022/03/30 00:47:34;;;;;;;35.30;18.23;;;;;;;;;;5020254;28;20116;-59
2022/03/30 00:50:00;;;;;;;37.40;18.17;;;;;;;;;;5018682;28;20101;-60
2022/03/30 00:52:26;;;;;;;29.38;16.88;;;;;;;;;;5017862;28;20091;-59
2022/03/30 00:54:52;;;;;;;38.72;19.02;;;;;;;;;;5019969;28;20477;-60
2022/03/30 00:57:22;;;;;;;32.58;18.23;;;;;;;;;;5020870;28;20017;-60
2022/03/30 00:59:48;;;;;;;39.45;18.40;;;;;;;;;;5022884;28;20025;-60
2022/03/30 01:02:15;;;;;;;36.55;19.50;;;;;;;;;;5023235;28;20021;-60
2022/03/30 01:04:41;;;;;;;33.33;17.77;;;;;;;;;;5019613;28;20072;-60
2022/03/30 01:07:07;;;;;;;33.50;17.80;;;;;;;;;;5018426;28;20125;-60
2022/03/30 01:09:33;;;;;;;35.42;17.50;;;;;;;;;;5015173;28;20521;-60
2022/03/30 01:11:59;;;;;;;36.80;17.92;;;;;;;;;;5022156;28;20428;-60
2022/03/30 01:14:25;;;;;;;36.53;18.58;;;;;;;;;;5014899;28;20451;-60
2022/03/30 01:16:51;;;;;;;33.17;17.95;;;;;;;;;;5018454;28;20052;-60
2022/03/30 01:19:17;;;;;;;35.33;18.48;;;;;;;;;;5018038;28;20087;-59
2022/03/30 01:21:44;;;;;;;38.60;19.13;;;;;;;;;;5022100;28;20024;-59
2022/03/30 01:24:11;;;;;;;34.85;17.73;;;;;;;;;;5017343;28;20021;-60
2022/03/30 01:26:37;;;;;;;35.70;18.20;;;;;;;;;;5013857;28;20025;-60
2022/03/30 01:32:34;;;;;;;37.65;18.38;;;;;;;;;;5015934;28;20055;-59
2022/03/30 01:34:38;;;;;;;31.75;17.42;;;;;;;;;;5008265;28;20045;-59
2022/03/30 01:37:06;;;;;;;37.38;17.85;;;;;;;;;;5017796;28;20472;-60
2022/03/30 01:39:32;;;;;;;42.90;18.65;;;;;;;;;;5014427;28;20465;-60
2022/03/30 01:41:58;;;;;;;38.78;19.40;;;;;;;;;;5017191;28;20026;-60
2022/03/30 01:44:24;;;;;;;34.45;18.63;;;;;;;;;;5018426;28;20355;-60
2022/03/30 01:46:51;;;;;;;35.88;18.42;;;;;;;;;;5001517;28;20022;-60
2022/03/30 01:49:21;;;;;;;37.40;18.33;;;;;;;;;;5019976;28;20038;-60
2022/03/30 01:51:54;;;;;;;35.08;18.40;;;;;;;;;;5018989;28;20034;-60
2022/03/30 01:54:21;;;;;;;33.10;17.85;;;;;;;;;;5021178;28;20033;-59
2022/03/30 01:56:48;;;;;;;33.58;19.02;;;;;;;;;;4999960;28;20029;-60
2022/03/30 01:59:14;;;;;;;32.78;18.00;;;;;;;;;;5016798;28;20033;-60
2022/03/30 02:01:44;;;;;;;37.90;19.38;;;;;;;;;;5018628;28;20033;-60
2022/03/30 02:04:10;;;;;;;40.65;18.38;;;;;;;;;;5017672;28;20026;-60
2022/03/30 02:06:36;;;;;;;40.05;18.63;;;;;;;;;;5019725;28;20021;-60
2022/03/30 02:09:03;;;;;;;43.30;20.10;;;;;;;;;;5017741;28;20109;-60
2022/03/30 02:11:30;;;;;;;37.95;19.13;;;;;;;;;;5014870;28;20539;-59
2022/03/30 02:13:56;;;;;;;37.15;18.85;;;;;;;;;;5017836;28;20048;-60
2022/03/30 02:16:23;;;;;;;34.70;18.85;;;;;;;;;;5022139;28;20040;-60
2022/03/30 02:18:49;;;;;;;35.15;18.52;;;;;;;;;;5002971;28;20033;-60
2022/03/30 02:21:15;;;;;;;38.97;19.08;;;;;;;;;;5018104;28;20327;-60
2022/03/30 02:23:42;;;;;;;36.67;18.92;;;;;;;;;;5000960;28;20036;-60
2022/03/30 02:26:08;;;;;;;37.60;18.50;;;;;;;;;;5018387;28;20679;-60
2022/03/30 02:28:34;;;;;;;39.88;19.08;;;;;;;;;;5003868;28;20029;-59
2022/03/30 02:31:00;;;;;;;34.13;18.77;;;;;;;;;;5017924;28;20460;-60
2022/03/30 02:33:27;;;;;;;37.80;18.88;;;;;;;;;;5002375;28;20029;-59
2022/03/30 02:35:53;;;;;;;34.42;18.98;;;;;;;;;;5019738;28;20066;-60
2022/03/30 02:38:20;;;;;;;37.40;18.17;;;;;;;;;;5016161;28;20474;-60
2022/03/30 02:40:46;;;;;;;37.40;18.98;;;;;;;;;;5015632;28;20021;-59
2022/03/30 02:43:16;;;;;;;40.50;19.85;;;;;;;;;;4996876;28;20029;-60
2022/03/30 02:45:42;;;;;;;38.75;19.25;;;;;;;;;;5021965;28;20029;-60
2022/03/30 02:48:22;;;;;;;41.28;19.27;;;;;;;;;;5016638;28;20105;-60
2022/03/30 02:50:52;;;;;;;37.28;19.48;;;;;;;;;;5013793;28;20055;-60
2022/03/30 02:53:19;;;;;;;41.15;19.80;;;;;;;;;;5017930;28;20021;-59
2022/03/30 02:55:46;;;;;;;41.92;19.20;;;;;;;;;;5016943;28;20400;-60
2022/03/30 02:58:12;;;;;;;41.15;19.30;;;;;;;;;;5020665;28;20410;-60
2022/03/30 03:00:39;;;;;;;43.40;20.48;;;;;;;;;;5020216;28;20029;-60
2022/03/30 03:03:05;;;;;;;43.67;20.10;;;;;;;;;;5015532;28;20097;-60
2022/03/30 03:05:34;;;;;;;43.15;19.98;;;;;;;;;;5021046;28;20064;-60
2022/03/30 03:08:00;;;;;;;42.33;20.65;;;;;;;;;;4999122;28;20024;-60
2022/03/30 03:10:26;;;;;;;41.50;19.80;;;;;;;;;;5003627;28;20080;-60
2022/03/30 03:12:53;;;;;;;40.92;19.45;;;;;;;;;;5017233;28;20021;-60
2022/03/30 03:15:19;;;;;;;46.85;20.13;;;;;;;;;;5017116;28;20062;-59
2022/03/30 03:17:45;;;;;;;42.05;18.98;;;;;;;;;;5018949;28;20022;-60
2022/03/30 03:20:11;;;;;;;40.67;19.77;;;;;;;;;;5023294;28;20014;-59
2022/03/30 03:22:38;;;;;;;36.90;19.02;;;;;;;;;;5020540;28;20461;-60
2022/03/30 03:25:04;;;;;;;42.20;19.98;;;;;;;;;;5016776;28;20461;-60
2022/03/30 03:27:30;;;;;;;39.88;20.23;;;;;;;;;;5018516;28;20017;-60
2022/03/30 03:29:56;;;;;;;42.05;19.83;;;;;;;;;;5002900;28;20389;-60
2022/03/30 03:32:22;;;;;;;37.42;19.58;;;;;;;;;;5017290;28;20038;-60
2022/03/30 03:34:49;;;;;;;41.20;20.55;;;;;;;;;;5002140;28;20529;-59
2022/03/30 03:37:18;;;;;;;38.92;20.58;;;;;;;;;;5014515;28;20034;-59
2022/03/30 03:39:44;;;;;;;42.25;19.90;;;;;;;;;;5017463;28;20443;-60
2022/03/30 03:42:10;;;;;;;45.20;19.88;;;;;;;;;;5014523;28;20061;-59
2022/03/30 03:44:36;;;;;;;45.53;21.58;;;;;;;;;;5017033;28;20045;-60
2022/03/30 03:47:03;;;;;;;48.85;21.55;;;;;;;;;;5012967;28;20080;-60
2022/03/30 03:49:29;;;;;;;39.30;19.98;;;;;;;;;;5014857;28;20032;-60
2022/03/30 03:51:55;;;;;;;37.50;20.23;;;;;;;;;;5017635;28;20385;-60
2022/03/30 03:54:21;;;;;;;41.50;21.05;;;;;;;;;;4999181;28;20052;-60
2022/03/30 03:56:47;;;;;;;38.45;19.00;;;;;;;;;;5018773;28;20680;-60
2022/03/30 03:59:13;;;;;;;41.67;20.58;;;;;;;;;;5019566;28;20397;-60
2022/03/30 04:01:39;;;;;;;40.60;20.50;;;;;;;;;;5024600;28;20026;-60
2022/03/30 04:04:06;;;;;;;40.42;19.77;;;;;;;;;;5000960;28;20028;-60
2022/03/30 04:06:32;;;;;;;41.30;19.77;;;;;;;;;;5004735;28;20372;-60
2022/03/30 04:08:58;;;;;;;42.10;20.33;;;;;;;;;;5022780;28;20378;-60
2022/03/30 04:11:24;;;;;;;37.90;20.23;;;;;;;;;;5021532;28;20053;-60
2022/03/30 04:13:50;;;;;;;37.25;18.60;;;;;;;;;;5000879;28;20029;-60
2022/03/30 04:16:19;;;;;;;38.58;20.13;;;;;;;;;;5025098;28;20516;-60
2022/03/30 04:18:45;;;;;;;39.83;20.63;;;;;;;;;;5020724;28;20389;-59
2022/03/30 04:21:11;;;;;;;45.42;22.33;;;;;;;;;;5022954;28;20021;-59
2022/03/30 04:23:37;;;;;;;45.67;19.58;;;;;;;;;;5023676;28;20052;-60
2022/03/30 04:26:03;;;;;;;40.97;19.83;;;;;;;;;;5020193;28;20060;-60
2022/03/30 04:28:29;;;;;;;37.70;20.42;;;;;;;;;;5022981;28;20030;-60
2022/03/30 04:30:55;;;;;;;41.53;20.00;;;;;;;;;;5019235;28;20041;-62
2022/03/30 04:33:21;;;;;;;43.05;20.63;;;;;;;;;;5021533;28;20029;-59
2022/03/30 04:35:47;;;;;;;40.10;20.20;;;;;;;;;;5021735;28;20022;-60
2022/03/30 04:38:14;;;;;;;41.03;21.52;;;;;;;;;;5018145;28;20026;-60
2022/03/30 04:40:40;;;;;;;39.80;20.75;;;;;;;;;;5019622;28;20093;-60
2022/03/30 04:43:06;;;;;;;48.83;21.88;;;;;;;;;;5017991;28;20658;-60
2022/03/30 04:45:32;;;;;;;46.03;21.17;;;;;;;;;;5021095;28;20033;-60
2022/03/30 04:47:58;;;;;;;40.08;19.80;;;;;;;;;;5019948;28;20095;-60
2022/03/30 04:50:24;;;;;;;41.58;20.45;;;;;;;;;;5018170;28;20120;-59
2022/03/30 04:52:51;;;;;;;42.60;20.58;;;;;;;;;;5018233;28;20346;-60
2022/03/30 04:55:19;;;;;;;44.08;21.60;;;;;;;;;;5016570;28;20041;-60
2022/03/30 04:57:45;;;;;;;45.85;21.70;;;;;;;;;;5023253;28;20076;-59
2022/03/30 05:00:11;;;;;;;42.45;21.45;;;;;;;;;;5023143;28;20045;-60
2022/03/30 05:02:38;;;;;;;39.15;20.13;;;;;;;;;;5023653;28;21251;-59
2022/03/30 05:05:05;;;;;;;41.92;21.05;;;;;;;;;;5016231;28;20013;-59
2022/03/30 05:07:31;;;;;;;38.60;20.45;;;;;;;;;;4999491;28;20029;-59
2022/03/30 05:09:57;;;;;;;45.08;20.23;;;;;;;;;;5020443;28;20373;-59
2022/03/30 05:12:24;;;;;;;46.72;21.83;;;;;;;;;;5022131;28;20515;-59
2022/03/30 05:14:49;;;;;;;43.58;21.70;;;;;;;;;;5019376;28;20105;-59
2022/03/30 05:17:16;;;;;;;44.45;21.45;;;;;;;;;;5020304;28;20109;-60
2022/03/30 05:19:44;;;;;;;43.95;21.35;;;;;;;;;;5019551;28;20033;-60
2022/03/30 05:22:10;;;;;;;42.08;21.95;;;;;;;;;;5023090;28;20072;-60
2022/03/30 05:24:36;;;;;;;42.90;21.05;;;;;;;;;;5019989;28;20472;-60
2022/03/30 05:27:02;;;;;;;41.13;22.58;;;;;;;;;;5017786;28;20097;-59
2022/03/30 05:29:28;;;;;;;42.75;22.02;;;;;;;;;;5000553;28;20030;-60
2022/03/30 05:31:55;;;;;;;51.50;21.73;;;;;;;;;;5020624;28;20017;-60
2022/03/30 05:34:21;;;;;;;41.30;21.40;;;;;;;;;;5003120;28;20017;-59
2022/03/30 05:36:47;;;;;;;51.88;23.33;;;;;;;;;;5017475;28;20021;-60
2022/03/30 05:39:13;;;;;;;50.25;23.85;;;;;;;;;;5018102;28;20025;-59
2022/03/30 05:41:39;;;;;;;51.03;22.98;;;;;;;;;;5017935;28;20673;-59
2022/03/30 05:44:05;;;;;;;50.33;23.63;;;;;;;;;;5017891;28;20022;-58
2022/03/30 05:46:31;;;;;;;50.10;22.83;;;;;;;;;;5024572;28;20045;-59
2022/03/30 05:48:57;;;;;;;49.70;23.70;;;;;;;;;;5018143;28;20025;-59
2022/03/30 05:51:23;;;;;;;43.42;22.85;;;;;;;;;;5021905;28;20037;-59
2022/03/30 05:53:49;;;;;;;45.15;22.58;;;;;;;;;;5018138;28;20275;-59
2022/03/30 05:56:16;;;;;;;48.10;22.83;;;;;;;;;;5024155;28;20033;-58
2022/03/30 05:58:42;;;;;;;44.70;21.85;;;;;;;;;;5000682;28;20028;-59
2022/03/30 06:01:08;;;;;;;43.63;21.90;;;;;;;;;;5023545;28;20033;-59
2022/03/30 06:03:37;;;;;;;42.97;22.00;;;;;;;;;;5023740;28;20402;-59
2022/03/30 06:06:04;;;;;;;43.03;22.27;;;;;;;;;;5020332;28;20113;-59
2022/03/30 06:08:30;;;;;;;40.42;21.77;;;;;;;;;;5017660;28;20088;-59
2022/03/30 06:10:56;;;;;;;51.13;23.38;;;;;;;;;;5017397;28;20026;-59
2022/03/30 06:13:22;;;;;;;44.33;23.05;;;;;;;;;;5016149;28;20474;-59
2022/03/30 06:15:49;;;;;;;43.83;21.80;;;;;;;;;;5002267;28;20646;-59
2022/03/30 06:18:15;;;;;;;44.63;23.05;;;;;;;;;;5019634;28;20965;-59
2022/03/30 06:20:41;;;;;;;45.15;22.05;;;;;;;;;;4998258;28;20100;-59
2022/03/30 06:23:07;;;;;;;46.92;21.83;;;;;;;;;;5020601;28;20108;-58
2022/03/30 06:25:33;;;;;;;44.13;21.42;;;;;;;;;;5020577;28;20022;-61
2022/03/30 06:27:59;;;;;;;44.45;22.88;;;;;;;;;;5019445;28;20390;-60
2022/03/30 06:30:26;;;;;;;50.15;23.58;;;;;;;;;;5015565;28;20059;-61
2022/03/30 06:32:52;;;;;;;51.10;23.02;;;;;;;;;;5017302;28;20514;-60
2022/03/30 06:35:19;;;;;;;46.65;20.63;;;;;;;;;;5017605;28;20125;-60
2022/03/30 06:37:46;;;;;;;46.35;21.35;;;;;;;;;;5020404;28;20539;-60
2022/03/30 06:40:14;;;;;;;54.67;23.52;;;;;;;;;;5020315;28;20039;-61
2022/03/30 06:42:41;;;;;;;43.28;21.70;;;;;;;;;;5017447;28;20018;-60
2022/03/30 06:45:08;;;;;;;42.22;21.30;;;;;;;;;;5015369;28;20053;-60
2022/03/30 06:47:34;;;;;;;41.92;21.40;;;;;;;;;;5021854;28;20017;-60
2022/03/30 06:50:00;;;;;;;39.45;21.88;;;;;;;;;;5021172;28;20034;-60
2022/03/30 06:52:26;;;;;;;48.35;20.98;;;;;;;;;;5021043;28;20029;-60
2022/03/30 06:54:53;;;;;;;45.30;21.63;;;;;;;;;;4998028;28;20380;-60
2022/03/30 06:57:20;;;;;;;46.08;22.20;;;;;;;;;;5014724;28;20548;-61
2022/03/30 06:59:46;;;;;;;44.05;21.75;;;;;;;;;;5022128;28;20032;-60
2022/03/30 07:02:12;;;;;;;46.13;21.90;;;;;;;;;;5014680;28;20538;-61
2022/03/30 07:04:38;;;;;;;46.80;21.83;;;;;;;;;;5016934;28;20129;-60
2022/03/30 07:12:34;;;;;;;43.70;22.17;;;;;;;;;;5022688;28;20107;-61
2022/03/30 07:15:01;;;;;;;44.80;22.30;;;;;;;;;;5017935;28;20485;-60
2022/03/30 07:17:27;;;;;;;44.10;21.55;;;;;;;;;;5021799;28;20075;-60
2022/03/30 07:19:53;;;;;;;42.80;21.38;;;;;;;;;;5017211;28;20036;-60
2022/03/30 07:22:19;;;;;;;49.00;23.75;;;;;;;;;;5017339;28;20638;-59
2022/03/30 07:24:45;;;;;;;43.05;21.83;;;;;;;;;;5013852;28;20030;-60
2022/03/30 07:27:11;;;;;;;47.85;23.08;;;;;;;;;;5017107;28;20021;-61
2022/03/30 07:29:37;;;;;;;46.78;22.98;;;;;;;;;;5013003;28;20108;-60
2022/03/30 07:32:03;;;;;;;43.92;21.90;;;;;;;;;;4998722;28;20033;-60
2022/03/30 07:34:29;;;;;;;43.58;23.42;;;;;;;;;;5024146;28;20029;-60
2022/03/30 07:36:56;;;;;;;50.35;23.20;;;;;;;;;;5022453;28;20096;-60
2022/03/30 07:39:22;;;;;;;44.17;21.88;;;;;;;;;;5017807;28;20033;-61
2022/03/30 07:41:48;;;;;;;43.85;21.92;;;;;;;;;;5019450;28;20455;-60
2022/03/30 07:44:14;;;;;;;41.53;22.02;;;;;;;;;;5016297;28;20097;-60
2022/03/30 07:46:40;;;;;;;44.05;21.90;;;;;;;;;;5019675;28;20435;-60
2022/03/30 07:49:06;;;;;;;40.75;21.58;;;;;;;;;;5017133;28;20049;-61
2022/03/30 07:51:32;;;;;;;51.63;23.58;;;;;;;;;;5017664;28;20721;-61
2022/03/30 07:53:58;;;;;;;42.17;22.88;;;;;;;;;;5018173;28;20022;-60
2022/03/30 07:56:25;;;;;;;44.45;22.25;;;;;;;;;;5019261;28;20030;-60
2022/03/30 07:58:53;;;;;;;40.28;21.60;;;;;;;;;;5017528;28;20033;-60
2022/03/30 08:01:20;;;;;;;41.65;21.58;;;;;;;;;;5016467;28;20028;-61
2022/03/30 08:03:45;;;;;;;38.10;19.63;;;;;;;;;;4997877;28;20026;-60
2022/03/30 08:06:12;;;;;;;37.78;19.70;;;;;;;;;;5020278;28;20538;-61
2022/03/30 08:08:38;;;;;;;38.08;19.88;;;;;;;;;;5022764;28;20033;-60
2022/03/30 08:11:04;;;;;;;40.22;18.65;;;;;;;;;;5017977;28;20037;-60
2022/03/30 08:13:30;;;;;;;40.30;19.38;;;;;;;;;;5007856;28;20095;-60
2022/03/30 08:15:56;;;;;;;36.08;18.25;;;;;;;;;;5018877;28;20025;-60
2022/03/30 08:18:22;;;;;;;38.47;18.77;;;;;;;;;;5019143;28;20030;-60
2022/03/30 08:23:36;;;;;;;41.42;20.10;;;;;;;;;;5019454;28;20072;-60
2022/03/30 08:26:03;;;;;;;38.45;19.27;;;;;;;;;;5019879;28;20018;-60
2022/03/30 08:28:29;;;;;;;37.20;17.00;;;;;;;;;;5025119;28;20673;-61
2022/03/30 08:30:55;;;;;;;39.72;17.77;;;;;;;;;;5014242;28;20174;-60
2022/03/30 08:33:23;;;;;;;36.15;18.10;;;;;;;;;;5019002;28;20029;-60
2022/03/30 08:35:50;;;;;;;36.10;17.50;;;;;;;;;;5019624;28;20026;-60
2022/03/30 08:38:16;;;;;;;39.22;19.33;;;;;;;;;;5019858;28;20456;-60
2022/03/30 08:40:42;;;;;;;47.38;18.77;;;;;;;;;;5022029;28;20776;-61
2022/03/30 08:43:08;;;;;;;38.65;19.30;;;;;;;;;;5018039;28;20178;-61
2022/03/30 08:45:34;;;;;;;48.90;23.55;;;;;;;;;;5017614;28;20131;-60
2022/03/30 08:48:01;;;;;;;38.63;20.55;;;;;;;;;;5016839;28;20133;-61
2022/03/30 08:50:27;;;;;;;38.20;19.98;;;;;;;;;;5001575;28;20021;-60
2022/03/30 08:52:55;;;;;;;36.28;18.02;;;;;;;;;;5017258;28;20021;-60
2022/03/30 08:55:21;;;;;;;38.88;17.92;;;;;;;;;;5022406;28;20037;-61
2022/03/30 08:57:47;;;;;;;41.70;19.00;;;;;;;;;;5018528;28;20022;-60
2022/03/30 09:00:19;;;;;;;35.92;16.48;;;;;;;;;;5018554;28;20548;-61
2022/03/30 09:02:46;;;;;;;32.00;16.02;;;;;;;;;;5016142;28;20025;-60
2022/03/30 09:05:14;;;;;;;29.10;15.65;;;;;;;;;;5018754;28;20084;-60
2022/03/30 09:07:41;;;;;;;36.92;14.80;;;;;;;;;;4997534;28;20032;-61
2022/03/30 09:10:12;;;;;;;26.33;15.05;;;;;;;;;;4999985;28;20747;-61
2022/03/30 09:12:38;;;;;;;30.92;15.18;;;;;;;;;;5026369;28;20079;-61
2022/03/30 09:15:05;;;;;;;29.75;14.68;;;;;;;;;;4998369;28;20025;-61
2022/03/30 09:17:38;;;;;;;32.58;14.77;;;;;;;;;;5018864;28;20029;-60
2022/03/30 09:20:05;;;;;;;27.55;14.38;;;;;;;;;;5018928;28;20029;-61
2022/03/30 09:22:32;;;;;;;31.58;13.85;;;;;;;;;;5022969;28;20028;-61
2022/03/30 09:24:58;;;;;;;23.63;12.32;;;;;;;;;;5019255;28;20093;-61
2022/03/30 09:27:24;;;;;;;23.23;14.13;;;;;;;;;;5017408;28;20651;-61
2022/03/30 09:29:51;;;;;;;27.02;13.27;;;;;;;;;;5011979;28;20466;-61
2022/03/30 09:32:17;;;;;;;22.50;13.15;;;;;;;;;;5016792;28;20030;-60
2022/03/30 09:34:49;;;;;;;22.42;13.45;;;;;;;;;;5018650;28;20772;-61
2022/03/30 09:37:15;;;;;;;31.70;13.00;;;;;;;;;;5016969;28;20167;-61
2022/03/30 09:39:42;;;;;;;24.42;12.55;;;;;;;;;;5022822;28;20052;-61
2022/03/30 09:42:10;;;;;;;31.80;14.32;;;;;;;;;;5020761;28;20041;-61
2022/03/30 09:44:45;;;;;;;28.65;13.98;;;;;;;;;;5017412;28;20014;-61
2022/03/30 09:47:11;;;;;;;26.63;13.77;;;;;;;;;;5016101;28;20018;-61
2022/03/30 09:49:37;;;;;;;23.17;14.15;;;;;;;;;;5016947;28;20116;-60
2022/03/30 09:52:10;;;;;;;27.13;14.35;;;;;;;;;;5018665;28;20025;-59
2022/03/30 09:54:44;;;;;;;28.17;13.85;;;;;;;;;;5020488;28;20432;-61
2022/03/30 09:57:11;;;;;;;25.05;13.32;;;;;;;;;;5017222;28;20037;-61
2022/03/30 09:59:57;;;;;;;24.90;14.05;;;;;;;;;;5013854;28;20060;-61
2022/03/30 10:02:23;;;;;;;31.05;13.52;;;;;;;;;;5014881;28;20104;-61
2022/03/30 10:04:50;;;;;;;24.65;13.75;;;;;;;;;;5021008;28;20098;-60
2022/03/30 10:07:16;;;;;;;24.92;13.98;;;;;;;;;;5019629;28;20427;-61
2022/03/30 10:09:43;;;;;;;22.02;10.63;;;;;;;;;;5019906;28;20492;-61
2022/03/30 10:12:09;;;;;;;22.15;12.98;;;;;;;;;;5016883;28;20061;-61
2022/03/30 10:14:39;;;;;;;28.33;13.10;;;;;;;;;;5022295;28;20496;-60
2022/03/30 10:17:05;;;;;;;24.10;13.20;;;;;;;;;;5016273;28;20504;-61
2022/03/30 10:19:32;;;;;;;25.27;12.95;;;;;;;;;;5018798;28;20025;-61
2022/03/30 10:21:58;;;;;;;25.25;13.93;;;;;;;;;;5014615;28;20037;-61
2022/03/30 10:24:42;;;;;;;22.38;13.20;;;;;;;;;;5021250;28;20491;-61
2022/03/30 10:27:18;;;;;;;27.15;13.02;;;;;;;;;;5019063;28;20026;-59
2022/03/30 10:29:52;;;;;;;28.08;13.25;;;;;;;;;;5018898;28;20037;-61
2022/03/30 10:32:22;;;;;;;26.90;13.65;;;;;;;;;;5014571;28;20037;-61
2022/03/30 10:34:49;;;;;;;23.30;13.15;;;;;;;;;;5018463;28;20018;-61
2022/03/30 10:37:22;;;;;;;24.80;13.43;;;;;;;;;;5019978;28;20029;-61
2022/03/30 10:39:56;;;;;;;26.05;13.95;;;;;;;;;;5018884;28;20108;-61
2022/03/30 10:42:22;;;;;;;26.45;13.98;;;;;;;;;;5020623;28;20045;-61
2022/03/30 10:44:51;;;;;;;24.58;14.20;;;;;;;;;;5018679;28;20033;-60
2022/03/30 10:47:18;;;;;;;25.45;14.18;;;;;;;;;;5019494;28;20053;-61
2022/03/30 10:49:46;;;;;;;24.75;13.32;;;;;;;;;;5014322;28;20437;-61
2022/03/30 10:52:32;;;;;;;26.48;13.50;;;;;;;;;;5015258;28;20492;-61
2022/03/30 10:55:13;;;;;;;28.05;14.82;;;;;;;;;;5019150;28;20052;-61
2022/03/30 10:57:45;;;;;;;27.63;14.40;;;;;;;;;;5018441;28;20029;-60
2022/03/30 11:00:18;;;;;;;24.85;13.75;;;;;;;;;;5015834;28;20075;-60
2022/03/30 11:02:45;;;;;;;25.77;13.82;;;;;;;;;;5021922;28;20022;-61
2022/03/30 11:05:12;;;;;;;26.10;13.88;;;;;;;;;;5019202;28;20579;-61
2022/03/30 11:07:38;;;;;;;24.67;14.60;;;;;;;;;;5023322;28;20507;-61
2022/03/30 11:10:21;;;;;;;29.60;15.15;;;;;;;;;;4998002;28;20105;-61
2022/03/30 11:12:57;;;;;;;18.85;10.63;;;;;;;;;;5015431;28;20393;-59
2022/03/30 11:15:23;;;;;;;19.67;12.65;;;;;;;;;;5021627;28;20017;-61
2022/03/30 11:17:49;;;;;;;21.38;12.93;;;;;;;;;;5019389;28;20037;-61
2022/03/30 11:20:16;;;;;;;22.13;13.43;;;;;;;;;;5022195;28;20034;-61
2022/03/30 11:22:44;;;;;;;28.13;14.15;;;;;;;;;;5020179;28;20014;-61
2022/03/30 11:25:17;;;;;;;26.38;13.82;;;;;;;;;;5018460;28;20068;-61
2022/03/30 11:27:45;;;;;;;;;;;;;;;;;;5023616;28;20053;-61
2022/03/30 11:30:18;;;;;;;23.50;13.02;;;;;;;;;;5018664;28;19909;-61
2022/03/30 11:32:44;;;;;;;25.73;14.00;;;;;;;;;;5017429;28;20025;-61
2022/03/30 11:35:17;;;;;;;24.45;14.35;;;;;;;;;;5019599;28;20152;-61
2022/03/30 11:37:46;;;;;;;24.75;14.45;;;;;;;;;;5017006;28;20503;-61
2022/03/30 11:40:17;;;;;;;23.25;13.48;;;;;;;;;;5016714;28;20021;-61
2022/03/30 11:42:44;;;;;;;22.98;14.02;;;;;;;;;;5015677;28;20025;-61
2022/03/30 11:45:21;;;;;;;23.75;13.70;;;;;;;;;;5001040;28;20045;-61
2022/03/30 11:47:53;;;;;;;24.77;13.82;;;;;;;;;;5017675;28;20357;-60
2022/03/30 11:50:25;;;;;;;24.08;14.00;;;;;;;;;;5017382;28;20105;-61
2022/03/30 11:52:55;;;;;;;22.13;12.88;;;;;;;;;;5016767;28;20040;-61
2022/03/30 11:55:21;;;;;;;23.88;12.63;;;;;;;;;;5016176;28;20046;-61
2022/03/30 11:57:50;;;;;;;19.80;12.27;;;;;;;;;;5016074;28;20384;-61
2022/03/30 12:00:16;;;;;;;23.23;13.23;;;;;;;;;;5012988;28;20029;-60
2022/03/30 12:02:44;;;;;;;24.63;13.88;;;;;;;;;;5020529;28;20037;-61
2022/03/30 12:05:10;;;;;;;24.23;13.57;;;;;;;;;;5016779;28;20018;-60
2022/03/30 12:07:37;;;;;;;25.73;14.57;;;;;;;;;;5019054;28;20507;-61
2022/03/30 12:10:04;;;;;;;24.75;14.55;;;;;;;;;;5018989;28;20022;-61
2022/03/30 12:12:31;;;;;;;22.95;15.80;;;;;;;;;;5018038;28;20040;-61
2022/03/30 12:15:01;;;;;;;26.75;16.88;;;;;;;;;;5015100;28;20030;-61
2022/03/30 12:17:28;;;;;;;27.20;16.38;;;;;;;;;;5000763;28;20033;-61
2022/03/30 12:19:54;;;;;;;22.65;14.27;;;;;;;;;;5002907;28;20567;-61
2022/03/30 12:22:21;;;;;;;26.15;14.55;;;;;;;;;;5021483;28;20040;-61
2022/03/30 12:24:47;;;;;;;26.45;16.10;;;;;;;;;;5021711;28;20116;-61
2022/03/30 12:27:13;;;;;;;22.88;13.60;;;;;;;;;;5020273;28;20029;-61
2022/03/30 12:29:39;;;;;;;22.48;14.80;;;;;;;;;;5020690;28;20248;-60
2022/03/30 12:32:06;;;;;;;25.83;15.40;;;;;;;;;;5019485;28;20056;-61
2022/03/30 12:34:34;;;;;;;28.02;16.15;;;;;;;;;;5019831;28;20040;-60
2022/03/30 12:37:07;;;;;;;20.90;13.82;;;;;;;;;;4999892;28;20029;-61
2022/03/30 12:39:40;;;;;;;19.20;13.23;;;;;;;;;;5021619;28;20065;-61
2022/03/30 12:42:06;;;;;;;;;;;;;;;;;;5017008;28;20116;-61
2022/03/30 12:44:49;;;;;;;24.27;12.68;;;;;;;;;;5019828;28;19905;-61
2022/03/30 12:47:29;;;;;;;19.08;12.20;;;;;;;;;;5021714;28;20531;-60
2022/03/30 12:49:56;;;;;;;24.70;14.98;;;;;;;;;;5014563;28;20046;-61
2022/03/30 12:52:22;;;;;;;26.05;17.23;;;;;;;;;;4998967;28;20033;-60
2022/03/30 12:54:48;;;;;;;24.35;14.45;;;;;;;;;;5017159;28;20037;-60
2022/03/30 12:57:26;;;;;;;26.95;16.15;;;;;;;;;;5015710;28;20462;-61
2022/03/30 12:59:52;;;;;;;26.00;16.20;;;;;;;;;;5018701;28;20021;-61
2022/03/30 13:02:25;;;;;;;29.20;17.35;;;;;;;;;;5007646;28;20041;-62
2022/03/30 13:04:54;;;;;;;22.23;16.33;;;;;;;;;;5022260;28;20455;-61
2022/03/30 13:07:24;;;;;;;24.50;14.30;;;;;;;;;;5021693;28;20481;-61
2022/03/30 13:09:59;;;;;;;19.70;12.90;;;;;;;;;;5014850;28;20030;-61
2022/03/30 13:12:32;;;;;;;25.02;14.35;;;;;;;;;;5022367;28;20038;-61
2022/03/30 13:15:09;;;;;;;26.70;18.58;;;;;;;;;;5012153;28;20075;-61
2022/03/30 13:17:35;;;;;;;30.33;17.98;;;;;;;;;;5021637;28;20034;-61
2022/03/30 13:20:03;;;;;;;21.20;13.18;;;;;;;;;;5025929;28;20373;-61
2022/03/30 13:22:29;;;;;;;23.20;13.75;;;;;;;;;;5021184;28;20022;-61
2022/03/30 13:24:57;;;;;;;19.20;13.38;;;;;;;;;;4996227;28;20022;-61
2022/03/30 13:27:25;;;;;;;18.45;12.57;;;;;;;;;;5019350;28;20041;-61
2022/03/30 13:29:54;;;;;;;20.50;14.25;;;;;;;;;;5018791;28;20014;-61
2022/03/30 13:32:21;;;;;;;26.60;16.23;;;;;;;;;;5019463;28;20116;-61
2022/03/30 13:34:47;;;;;;;25.80;15.35;;;;;;;;;;5021007;28;20034;-61
2022/03/30 13:37:13;;;;;;;19.40;13.02;;;;;;;;;;5019414;28;20646;-61
2022/03/30 13:39:41;;;;;;;22.65;13.52;;;;;;;;;;5020851;28;20022;-61
2022/03/30 13:42:07;;;;;;;24.48;16.20;;;;;;;;;;5018792;28;20029;-61
2022/03/30 13:44:33;;;;;;;23.60;14.77;;;;;;;;;;5020083;28;20469;-61
2022/03/30 13:46:59;;;;;;;17.88;12.55;;;;;;;;;;5023237;28;20033;-61
2022/03/30 13:49:44;;;;;;;19.98;13.13;;;;;;;;;;5022548;28;20412;-61
2022/03/30 13:52:14;;;;;;;19.70;13.02;;;;;;;;;;5021822;28;20334;-61
2022/03/30 13:54:40;;;;;;;24.27;13.73;;;;;;;;;;5024797;28;20093;-61
2022/03/30 13:57:06;;;;;;;22.50;13.63;;;;;;;;;;5018682;28;20432;-61
2022/03/30 13:59:32;;;;;;;19.67;12.13;;;;;;;;;;5011905;28;20124;-60
2022/03/30 14:01:58;;;;;;;18.90;13.57;;;;;;;;;;5000076;28;20104;-60
2022/03/30 14:04:24;;;;;;;24.60;12.45;;;;;;;;;;5016734;28;20534;-61
2022/03/30 14:06:50;;;;;;;17.60;11.68;;;;;;;;;;5018477;28;20041;-61
2022/03/30 14:09:16;;;;;;;23.55;13.10;;;;;;;;;;5022703;28;20497;-61
2022/03/30 14:11:42;;;;;;;21.23;13.13;;;;;;;;;;5017979;28;20439;-61
2022/03/30 14:14:08;;;;;;;19.27;12.63;;;;;;;;;;5018463;28;20029;-61
2022/03/30 14:16:34;;;;;;;18.25;10.73;;;;;;;;;;5000703;28;20067;-61
2022/03/30 14:19:00;;;;;;;21.35;12.00;;;;;;;;;;5021262;28;20022;-61
2022/03/30 14:21:26;;;;;;;21.67;15.73;;;;;;;;;;5016103;28;20034;-61
2022/03/30 14:23:52;;;;;;;20.40;13.55;;;;;;;;;;5018740;28;20021;-60
2022/03/30 14:26:18;;;;;;;22.92;14.60;;;;;;;;;;5016955;28;20061;-60
2022/03/30 14:28:44;;;;;;;22.05;14.27;;;;;;;;;;5021635;28;20087;-61
2022/03/30 14:31:10;;;;;;;17.38;11.30;;;;;;;;;;4995433;28;20133;-61